createdAt,value
2022-10-01T00:00:55.024Z,6.00
2022-10-01T00:03:58.857Z,5.95
2022-10-01T00:07:04.678Z,5.47
2022-10-01T00:10:10.892Z,5.50
2022-10-01T00:13:14.992Z,5.18
2022-10-01T00:16:23.481Z,5.63
2022-10-01T00:19:27.477Z,4.90
2022-10-01T00:22:33.141Z,5.13
2022-10-01T00:25:38.194Z,4.97
2022-10-01T00:28:43.908Z,5.00
2022-10-01T00:31:48.145Z,4.70
2022-10-01T00:34:53.662Z,4.28
2022-10-01T00:37:58.041Z,4.40
2022-10-01T00:41:02.460Z,4.65
2022-10-01T00:44:27.854Z,4.68
2022-10-01T00:47:36.863Z,4.53
2022-10-01T00:50:41.213Z,4.43
2022-10-01T00:53:46.165Z,4.22
2022-10-01T00:56:52.481Z,4.10
2022-10-01T01:00:01.173Z,4.60
2022-10-01T01:03:06.171Z,4.10
2022-10-01T01:06:10.817Z,4.00
2022-10-01T01:09:14.912Z,4.30
2022-10-01T01:12:36.978Z,3.90
2022-10-01T01:15:59.343Z,3.92
2022-10-01T01:19:43.769Z,4.00
2022-10-01T01:26:07.098Z,3.92
2022-10-01T01:29:40.309Z,3.80
2022-10-01T01:32:55.163Z,4.07
2022-10-01T01:36:16.168Z,3.70
2022-10-01T01:39:23.027Z,4.07
2022-10-01T01:42:36.732Z,4.18
2022-10-01T01:45:42.179Z,4.05
2022-10-01T01:48:51.037Z,4.38
2022-10-01T01:52:15.047Z,3.80
2022-10-01T01:55:19.657Z,4.30
2022-10-01T01:58:26.142Z,4.00
2022-10-01T02:01:41.864Z,3.90
2022-10-01T02:04:50.775Z,4.13
2022-10-01T02:08:33.074Z,4.25
2022-10-01T02:11:46.749Z,3.80
2022-10-01T02:15:08.288Z,3.80
2022-10-01T02:18:24.242Z,4.28
2022-10-01T02:21:37.268Z,4.20
2022-10-01T02:24:44.248Z,3.85
2022-10-01T02:27:59.150Z,3.78
2022-10-01T02:31:04.296Z,3.70
2022-10-01T02:34:12.857Z,3.70
2022-10-01T02:37:23.296Z,3.80
2022-10-01T02:40:30.970Z,4.10
2022-10-01T02:43:42.746Z,3.75
2022-10-01T02:46:59.057Z,3.92
2022-10-01T02:50:05.236Z,3.72
2022-10-01T02:53:16.960Z,3.63
2022-10-01T02:56:48.547Z,3.58
2022-10-01T02:59:57.598Z,3.80
2022-10-01T03:03:01.888Z,3.70
2022-10-01T03:06:06.137Z,4.40
2022-10-01T03:09:10.272Z,3.83
2022-10-01T03:12:14.458Z,4.43
2022-10-01T03:15:19.787Z,4.43
2022-10-01T03:18:24.154Z,4.13
2022-10-01T03:21:30.765Z,4.10
2022-10-01T03:24:35.104Z,4.40
2022-10-01T03:27:39.128Z,4.55
2022-10-01T03:30:43.099Z,4.88
2022-10-01T03:33:47.236Z,5.40
2022-10-01T03:36:54.762Z,5.00
2022-10-01T03:39:59.354Z,5.45
2022-10-01T03:43:03.607Z,5.70
2022-10-01T03:46:07.553Z,5.50
2022-10-01T03:49:11.468Z,5.53
2022-10-01T03:52:15.792Z,5.93
2022-10-01T03:55:19.487Z,5.28
2022-10-01T03:58:23.366Z,5.10
2022-10-01T04:01:28.315Z,5.20
2022-10-01T04:04:32.598Z,5.40
2022-10-01T04:07:37.133Z,5.25
2022-10-01T04:10:41.593Z,5.15
2022-10-01T04:13:45.643Z,5.57
2022-10-01T04:16:52.266Z,5.20
2022-10-01T04:19:57.664Z,5.63
2022-10-01T04:23:02.366Z,6.00
2022-10-01T04:26:07.482Z,5.78
2022-10-01T04:29:11.686Z,5.47
2022-10-01T04:32:18.438Z,6.35
2022-10-01T04:35:23.003Z,5.38
2022-10-01T04:38:27.266Z,5.85
2022-10-01T04:41:32.115Z,6.40
2022-10-01T04:44:36.362Z,6.10
2022-10-01T04:47:51.317Z,5.78
2022-10-01T04:50:55.538Z,5.45
2022-10-01T04:53:59.791Z,6.38
2022-10-01T04:57:03.960Z,6.28
2022-10-01T05:00:10.904Z,6.10
2022-10-01T05:03:14.896Z,6.47
2022-10-01T05:06:19.844Z,6.68
2022-10-01T05:09:24.232Z,6.20
2022-10-01T05:12:28.744Z,6.47
2022-10-01T05:15:32.921Z,6.90
2022-10-01T05:18:36.991Z,7.13
2022-10-01T05:21:41.298Z,6.85
2022-10-01T05:24:45.814Z,6.40
2022-10-01T05:27:50.488Z,6.80
2022-10-01T05:30:54.771Z,6.80
2022-10-01T05:33:59.019Z,6.72
2022-10-01T05:37:03.312Z,6.95
2022-10-01T05:40:07.446Z,7.00
2022-10-01T05:43:12.873Z,6.40
2022-10-01T05:46:17.138Z,7.05
2022-10-01T05:49:24.376Z,6.22
2022-10-01T05:52:33.951Z,6.25
2022-10-01T05:55:38.581Z,5.68
2022-10-01T05:58:42.324Z,6.32
2022-10-01T06:01:46.590Z,5.95
2022-10-01T06:04:50.903Z,5.85
2022-10-01T06:07:56.444Z,6.20
2022-10-01T06:11:04.324Z,5.95
2022-10-01T06:14:11.231Z,5.75
2022-10-01T06:17:15.435Z,6.00
2022-10-01T06:20:21.368Z,6.70
2022-10-01T06:23:25.480Z,6.13
2022-10-01T06:26:29.817Z,6.03
2022-10-01T06:29:34.097Z,6.28
2022-10-01T06:32:38.625Z,6.10
2022-10-01T06:35:48.226Z,6.07
2022-10-01T06:38:52.265Z,6.47
2022-10-01T06:41:56.165Z,5.72
2022-10-01T06:44:59.973Z,5.55
2022-10-01T06:48:04.789Z,6.20
2022-10-01T06:51:12.235Z,5.95
2022-10-01T06:54:18.246Z,5.85
2022-10-01T06:57:22.152Z,6.00
2022-10-01T07:00:27.511Z,6.28
2022-10-01T07:03:35.782Z,6.22
2022-10-01T07:06:39.919Z,5.88
2022-10-01T07:09:44.001Z,5.90
2022-10-01T07:12:49.004Z,5.60
2022-10-01T07:15:53.182Z,6.10
2022-10-01T07:18:57.503Z,5.68
2022-10-01T07:22:01.581Z,6.07
2022-10-01T07:25:05.875Z,5.88
2022-10-01T07:28:16.661Z,5.85
2022-10-01T07:31:21.611Z,5.55
2022-10-01T07:34:27.115Z,5.60
2022-10-01T07:37:31.570Z,6.75
2022-10-01T07:40:35.908Z,5.78
2022-10-01T07:43:42.239Z,5.57
2022-10-01T07:46:47.179Z,5.60
2022-10-01T07:49:51.119Z,5.57
2022-10-01T07:52:57.552Z,5.93
2022-10-01T07:56:02.323Z,6.63
2022-10-01T07:59:07.841Z,7.03
2022-10-01T08:02:16.998Z,6.63
2022-10-01T08:05:23.283Z,6.30
2022-10-01T08:08:27.535Z,6.50
2022-10-01T08:11:32.097Z,6.22
2022-10-01T08:14:38.445Z,6.47
2022-10-01T08:17:43.735Z,6.80
2022-10-01T08:20:47.840Z,6.55
2022-10-01T08:23:53.976Z,7.20
2022-10-01T08:26:58.099Z,6.82
2022-10-01T08:30:02.040Z,6.85
2022-10-01T08:33:06.222Z,6.80
2022-10-01T08:36:10.043Z,6.47
2022-10-01T08:39:14.788Z,6.22
2022-10-01T08:42:47.731Z,6.32
2022-10-01T08:45:54.248Z,5.97
2022-10-01T08:49:13.879Z,5.50
2022-10-01T08:52:32.167Z,5.53
2022-10-01T08:55:37.376Z,4.88
2022-10-01T08:58:45.135Z,4.80
2022-10-01T09:01:49.524Z,4.90
2022-10-01T09:05:01.507Z,4.68
2022-10-01T09:08:43.933Z,5.13
2022-10-01T09:12:54.013Z,5.15
2022-10-01T09:16:07.463Z,4.80
2022-10-01T09:19:54.110Z,4.90
2022-10-01T09:23:26.107Z,4.80
2022-10-01T09:26:31.198Z,5.20
2022-10-01T09:29:51.110Z,4.82
2022-10-01T09:33:19.932Z,4.55
2022-10-01T09:36:34.380Z,4.53
2022-10-01T09:39:47.568Z,5.03
2022-10-01T09:42:52.176Z,5.13
2022-10-01T09:45:56.778Z,4.50
2022-10-01T09:49:12.949Z,4.72
2022-10-01T09:52:24.579Z,4.72
2022-10-01T09:55:39.381Z,4.88
2022-10-01T09:58:50.678Z,4.18
2022-10-01T10:01:59.043Z,4.18
2022-10-01T10:05:06.263Z,4.10
2022-10-01T10:08:13.019Z,3.22
2022-10-01T10:11:24.285Z,3.50
2022-10-01T10:14:32.321Z,3.80
2022-10-01T10:17:41.345Z,3.60
2022-10-01T10:20:46.555Z,3.22
2022-10-01T10:24:02.953Z,2.90
2022-10-01T10:27:28.809Z,2.50
2022-10-01T10:30:33.220Z,2.25
2022-10-01T10:33:38.022Z,2.88
2022-10-01T10:36:43.288Z,2.10
2022-10-01T10:39:53.787Z,2.20
2022-10-01T10:42:59.615Z,2.00
2022-10-01T10:46:04.596Z,2.08
2022-10-01T10:49:18.783Z,2.40
2022-10-01T10:52:29.926Z,2.60
2022-10-01T10:55:35.164Z,2.13
2022-10-01T10:58:45.103Z,2.22
2022-10-01T11:01:52.008Z,2.10
2022-10-01T11:05:01.467Z,2.20
2022-10-01T11:08:08.607Z,2.00
2022-10-01T11:11:40.744Z,2.00
2022-10-01T11:14:50.343Z,1.90
2022-10-01T11:18:22.020Z,2.15
2022-10-01T11:21:46.952Z,2.03
2022-10-01T11:25:10.247Z,2.10
2022-10-01T11:28:37.234Z,2.22
2022-10-01T11:31:53.340Z,1.90
2022-10-01T11:35:22.158Z,1.70
2022-10-01T11:38:45.582Z,1.40
2022-10-01T11:42:07.848Z,1.55
2022-10-01T11:45:23.176Z,1.40
2022-10-01T11:48:46.776Z,1.30
2022-10-01T11:52:12.496Z,1.30
2022-10-01T11:55:45.171Z,1.20
2022-10-01T11:58:59.855Z,1.60
2022-10-01T12:02:25.263Z,1.17
2022-10-01T12:05:32.749Z,1.45
2022-10-01T12:08:39.139Z,1.20
2022-10-01T12:11:52.745Z,1.35
2022-10-01T12:15:09.364Z,1.20
2022-10-01T12:18:22.204Z,1.10
2022-10-01T12:21:32.480Z,1.08
2022-10-01T12:24:42.189Z,1.00
2022-10-01T12:28:07.425Z,0.90
2022-10-01T12:31:35.763Z,1.00
2022-10-01T12:35:25.889Z,1.17
2022-10-01T12:39:02.519Z,0.90
2022-10-01T12:42:45.439Z,0.93
2022-10-01T12:46:05.045Z,1.17
2022-10-01T12:49:34.459Z,0.93
2022-10-01T12:53:13.742Z,1.08
2022-10-01T12:56:29.995Z,0.80
2022-10-01T12:59:50.681Z,0.90
2022-10-01T13:03:25.860Z,0.90
2022-10-01T13:07:02.262Z,0.90
2022-10-01T13:10:46.931Z,0.98
2022-10-01T13:13:53.299Z,0.77
2022-10-01T13:17:09.117Z,0.65
2022-10-01T13:20:44.336Z,0.90
2022-10-01T13:24:00.369Z,1.00
2022-10-01T13:27:17.869Z,0.75
2022-10-01T13:30:27.589Z,0.88
2022-10-01T13:33:34.183Z,0.90
2022-10-01T13:36:38.843Z,0.93
2022-10-01T13:39:47.514Z,0.90
2022-10-01T13:42:55.365Z,0.95
2022-10-01T13:46:09.000Z,0.88
2022-10-01T13:49:42.520Z,0.95
2022-10-01T13:52:46.996Z,0.73
2022-10-01T13:55:53.331Z,0.80
2022-10-01T13:58:57.733Z,0.70
2022-10-01T14:02:03.001Z,0.82
2022-10-01T14:05:30.313Z,0.80
2022-10-01T14:08:50.554Z,0.75
2022-10-01T14:12:22.066Z,0.68
2022-10-01T14:15:57.774Z,0.80
2022-10-01T14:19:02.485Z,0.70
2022-10-01T14:22:18.694Z,0.65
2022-10-01T14:25:33.730Z,0.70
2022-10-01T14:28:56.142Z,0.63
2022-10-01T14:32:35.542Z,0.95
2022-10-01T14:36:09.376Z,0.52
2022-10-01T14:39:18.794Z,0.55
2022-10-01T14:42:22.850Z,0.95
2022-10-01T14:45:27.559Z,0.70
2022-10-01T14:48:34.736Z,0.95
2022-10-01T14:51:50.998Z,0.60
2022-10-01T14:55:05.462Z,0.85
2022-10-01T14:58:26.289Z,0.80
2022-10-01T15:01:30.657Z,0.80
2022-10-01T15:04:35.775Z,0.70
2022-10-01T15:07:39.707Z,0.80
2022-10-01T15:10:52.924Z,0.80
2022-10-01T15:14:06.385Z,0.90
2022-10-01T15:17:24.751Z,0.80
2022-10-01T15:20:29.230Z,1.00
2022-10-01T15:23:39.586Z,0.80
2022-10-01T15:26:46.905Z,0.73
2022-10-01T15:29:56.481Z,0.80
2022-10-01T15:33:24.309Z,0.90
2022-10-01T15:36:28.797Z,0.75
2022-10-01T15:39:38.413Z,1.17
2022-10-01T15:43:11.770Z,1.10
2022-10-01T15:46:17.436Z,1.85
2022-10-01T15:49:26.066Z,1.10
2022-10-01T15:52:54.302Z,1.10
2022-10-01T15:56:06.836Z,1.02
2022-10-01T15:59:16.876Z,1.08
2022-10-01T16:02:25.569Z,1.20
2022-10-01T16:05:38.458Z,1.10
2022-10-01T16:09:15.788Z,1.10
2022-10-01T16:12:23.883Z,1.05
2022-10-01T16:15:30.534Z,0.80
2022-10-01T16:18:37.271Z,0.82
2022-10-01T16:21:41.766Z,1.30
2022-10-01T16:24:55.386Z,1.40
2022-10-01T16:31:08.665Z,1.13
2022-10-01T16:34:15.621Z,1.30
2022-10-01T16:37:19.899Z,1.10
2022-10-01T16:40:26.624Z,1.20
2022-10-01T16:43:31.906Z,1.30
2022-10-01T16:46:36.773Z,1.30
2022-10-01T16:49:41.449Z,1.30
2022-10-01T16:52:45.758Z,1.20
2022-10-01T16:55:50.258Z,1.20
2022-10-01T16:58:54.795Z,1.20
2022-10-01T17:02:00.803Z,1.00
2022-10-01T17:05:05.787Z,1.40
2022-10-01T17:08:12.976Z,1.45
2022-10-01T17:11:17.249Z,1.20
2022-10-01T17:14:22.326Z,1.63
2022-10-01T17:17:26.647Z,1.52
2022-10-01T17:20:30.749Z,1.33
2022-10-01T17:23:36.102Z,1.25
2022-10-01T17:26:42.216Z,1.38
2022-10-01T17:29:48.074Z,1.30
2022-10-01T17:32:52.231Z,1.30
2022-10-01T17:35:56.214Z,1.20
2022-10-01T17:39:00.744Z,1.40
2022-10-01T17:42:05.097Z,1.17
2022-10-01T17:45:11.275Z,1.45
2022-10-01T17:48:17.940Z,1.50
2022-10-01T17:51:25.805Z,1.52
2022-10-01T17:54:29.967Z,1.60
2022-10-01T17:57:34.277Z,1.40
2022-10-01T18:00:41.037Z,1.70
2022-10-01T18:03:45.730Z,1.80
2022-10-01T18:06:50.575Z,1.60
2022-10-01T18:09:54.754Z,1.60
2022-10-01T18:12:59.043Z,1.60
2022-10-01T18:16:08.748Z,1.90
2022-10-01T18:22:37.949Z,1.70
2022-10-01T18:25:41.912Z,1.80
2022-10-01T18:28:46.262Z,1.60
2022-10-01T18:31:58.873Z,1.73
2022-10-01T18:35:13.887Z,1.40
2022-10-01T18:38:26.860Z,1.40
2022-10-01T18:41:36.261Z,2.03
2022-10-01T18:44:40.120Z,1.98
2022-10-01T18:48:06.603Z,1.63
2022-10-01T18:51:36.022Z,1.50
2022-10-01T18:55:09.702Z,1.60
2022-10-01T18:58:51.513Z,1.90
2022-10-01T19:02:01.728Z,2.10
2022-10-01T19:05:31.195Z,1.95
2022-10-01T19:08:53.304Z,1.80
2022-10-01T19:12:21.054Z,1.73
2022-10-01T19:15:36.006Z,1.55
2022-10-01T19:19:01.549Z,1.60
2022-10-01T19:22:43.600Z,2.05
2022-10-01T19:25:51.043Z,1.92
2022-10-01T19:29:18.380Z,1.90
2022-10-01T19:32:30.390Z,1.63
2022-10-01T19:35:53.565Z,1.60
2022-10-01T19:39:05.366Z,1.60
2022-10-01T19:42:19.915Z,1.60
2022-10-01T19:45:34.931Z,1.70
2022-10-01T19:48:47.801Z,1.63
2022-10-01T19:51:57.611Z,1.60
2022-10-01T19:55:01.788Z,1.55
2022-10-01T19:58:16.900Z,1.73
2022-10-01T20:01:24.040Z,1.58
2022-10-01T20:04:38.577Z,1.45
2022-10-01T20:08:01.759Z,1.50
2022-10-01T20:11:26.577Z,1.52
2022-10-01T20:15:10.481Z,1.92
2022-10-01T20:21:43.608Z,1.95
2022-10-01T20:25:02.230Z,2.00
2022-10-01T20:28:24.901Z,1.65
2022-10-01T20:31:44.254Z,1.70
2022-10-01T20:35:20.765Z,1.80
2022-10-01T20:38:30.857Z,1.40
2022-10-01T20:41:44.616Z,1.90
2022-10-01T20:44:49.244Z,1.60
2022-10-01T20:47:59.995Z,1.33
2022-10-01T20:51:16.787Z,1.90
2022-10-01T20:54:26.977Z,1.70
2022-10-01T20:57:39.498Z,1.70
2022-10-01T21:00:46.129Z,1.67
2022-10-01T21:04:13.155Z,1.25
2022-10-01T21:07:39.198Z,1.67
2022-10-01T21:10:50.969Z,1.75
2022-10-01T21:14:18.294Z,1.50
2022-10-01T21:17:47.786Z,1.77
2022-10-01T21:21:10.845Z,1.27
2022-10-01T21:24:29.933Z,1.63
2022-10-01T21:27:49.611Z,1.58
2022-10-01T21:31:25.099Z,1.48
2022-10-01T21:34:54.266Z,2.00
2022-10-01T21:38:26.007Z,1.67
2022-10-01T21:45:30.444Z,1.42
2022-10-01T21:48:55.710Z,1.35
2022-10-01T21:52:18.656Z,1.60
2022-10-01T21:55:33.365Z,1.65
2022-10-01T21:58:55.606Z,1.58
2022-10-01T22:02:14.845Z,1.63
2022-10-01T22:05:32.441Z,1.85
2022-10-01T22:08:58.937Z,1.77
2022-10-01T22:12:06.047Z,2.00
2022-10-01T22:15:39.439Z,1.85
2022-10-01T22:18:49.050Z,1.60
2022-10-01T22:21:59.321Z,1.40
2022-10-01T22:25:04.689Z,1.70
2022-10-01T22:28:16.293Z,1.75
2022-10-01T22:31:25.777Z,1.48
2022-10-01T22:34:35.880Z,1.90
2022-10-01T22:37:47.382Z,1.55
2022-10-01T22:41:06.015Z,2.03
2022-10-01T22:44:15.304Z,1.55
2022-10-01T22:47:33.037Z,1.95
2022-10-01T22:51:14.337Z,1.85
2022-10-01T22:54:47.329Z,1.55
2022-10-01T22:57:56.689Z,1.60
2022-10-01T23:01:48.561Z,1.63
2022-10-01T23:05:15.828Z,2.22
2022-10-01T23:08:46.026Z,1.52
2022-10-01T23:12:02.238Z,1.92
2022-10-01T23:15:11.927Z,1.77
2022-10-01T23:18:28.036Z,1.50
2022-10-01T23:22:20.849Z,1.75
2022-10-01T23:25:55.812Z,1.80
2022-10-01T23:29:17.715Z,1.50
2022-10-01T23:32:39.953Z,1.98
2022-10-01T23:35:53.314Z,1.80
2022-10-01T23:39:21.921Z,2.10
2022-10-01T23:42:39.859Z,2.10
2022-10-01T23:45:54.892Z,2.08
2022-10-01T23:49:06.958Z,1.90
2022-10-01T23:52:26.103Z,1.58
2022-10-01T23:56:04.643Z,1.65
2022-10-01T23:59:20.638Z,2.00
